Time;durP1;ratioP1;P1;durP2;ratioP2;P2;SDS_P1;SDS_P2;PMS_P1;PMS_P2;Temp;Humidity;BMP_temperature;BMP_pressure;BME280_temperature;BME280_humidity;BME280_pressure;Samples;Min_cycle;Max_cycle;Signal;HPM_P1;HPM_P2
2021/04/22 00:02:09;;;;;;;31.45;21.42;;;9.00;97.60;;;;;;5066408;28;20049;-80
2021/04/22 00:04:35;;;;;;;29.38;21.58;;;9.00;97.90;;;;;;5054844;28;20088;-80
2021/04/22 00:07:01;;;;;;;27.27;20.25;;;9.00;98.10;;;;;;5054882;28;20029;-80
2021/04/22 00:09:28;;;;;;;31.67;21.65;;;9.00;98.30;;;;;;5055037;28;20041;-80
2021/04/22 00:11:54;;;;;;;28.08;20.80;;;9.00;98.50;;;;;;5054406;28;20032;-80
2021/04/22 00:14:21;;;;;;;30.70;22.30;;;8.90;98.70;;;;;;5053899;28;20040;-80
2021/04/22 00:16:47;;;;;;;30.02;21.98;;;8.90;99.00;;;;;;5053234;28;20032;-80
2021/04/22 00:19:13;;;;;;;29.35;20.25;;;8.90;99.30;;;;;;5072288;28;20048;-80
2021/04/22 00:21:39;;;;;;;33.00;22.40;;;9.00;99.60;;;;;;5067691;28;20033;-80
2021/04/22 00:24:07;;;;;;;30.02;22.00;;;8.90;99.70;;;;;;5053813;28;20044;-80
2021/04/22 00:26:33;;;;;;;35.42;22.40;;;8.80;99.90;;;;;;5054788;28;20047;-79
2021/04/22 00:28:59;;;;;;;31.27;22.27;;;8.80;99.90;;;;;;5066216;28;20055;-80
2021/04/22 00:31:26;;;;;;;31.23;22.52;;;8.80;99.90;;;;;;5066222;28;20040;-79
2021/04/22 00:33:52;;;;;;;30.77;21.90;;;8.70;99.90;;;;;;5056739;28;20048;-80
2021/04/22 00:36:18;;;;;;;32.33;23.17;;;8.80;99.90;;;;;;5054345;28;20359;-79
2021/04/22 00:38:45;;;;;;;31.15;22.00;;;8.80;99.90;;;;;;5071221;28;20033;-79
2021/04/22 00:41:11;;;;;;;32.55;23.15;;;8.80;99.90;;;;;;5054092;28;20044;-79
2021/04/22 00:43:38;;;;;;;33.35;22.95;;;8.80;99.90;;;;;;5053960;28;20036;-80
2021/04/22 00:46:04;;;;;;;30.38;22.90;;;8.70;99.90;;;;;;5068547;28;20032;-80
2021/04/22 00:48:30;;;;;;;36.75;23.83;;;8.70;99.90;;;;;;5054150;28;20036;-80
2021/04/22 00:51:05;;;;;;;34.10;24.00;;;8.80;99.90;;;;;;5068833;28;20040;-80
2021/04/22 00:53:33;;;;;;;29.77;22.80;;;8.70;99.90;;;;;;5052363;28;20044;-79
2021/04/22 00:55:59;;;;;;;33.55;22.88;;;8.60;99.90;;;;;;5053415;28;20040;-80
2021/04/22 00:58:25;;;;;;;36.10;23.40;;;8.60;99.90;;;;;;5058836;28;20024;-80
2021/04/22 01:00:57;;;;;;;32.55;23.98;;;8.50;99.90;;;;;;5067381;28;20033;-80
2021/04/22 01:03:24;;;;;;;30.60;21.45;;;8.50;99.90;;;;;;5056297;28;20048;-79
2021/04/22 01:05:59;;;;;;;33.80;24.55;;;8.50;99.90;;;;;;5053464;28;20033;-80
2021/04/22 01:08:25;;;;;;;28.83;21.98;;;8.40;99.90;;;;;;5053577;28;20025;-80
2021/04/22 01:10:52;;;;;;;31.65;21.80;;;8.40;99.90;;;;;;5068021;28;20043;-80
2021/04/22 01:13:20;;;;;;;33.20;23.33;;;8.40;99.90;;;;;;5058962;28;20033;-80
2021/04/22 01:15:46;;;;;;;29.90;21.55;;;8.40;99.90;;;;;;5056311;28;20024;-78
2021/04/22 01:18:13;;;;;;;29.10;21.48;;;8.30;99.90;;;;;;5061593;28;20029;-79
2021/04/22 01:20:41;;;;;;;42.47;22.75;;;8.30;99.90;;;;;;5064861;28;20111;-79
2021/04/22 01:23:08;;;;;;;33.47;22.83;;;8.30;99.90;;;;;;5053247;28;20037;-80
2021/04/22 01:25:38;;;;;;;30.50;21.48;;;8.30;99.90;;;;;;5064588;28;20025;-80
2021/04/22 01:28:07;;;;;;;34.80;22.15;;;8.20;99.90;;;;;;5052873;28;20671;-80
2021/04/22 01:30:41;;;;;;;30.67;21.10;;;8.10;99.90;;;;;;5056387;28;20029;-80
2021/04/22 01:33:08;;;;;;;30.42;21.17;;;8.10;99.90;;;;;;5060167;28;20049;-80
2021/04/22 01:35:38;;;;;;;32.28;21.30;;;8.10;99.90;;;;;;5053001;28;20492;-80
2021/04/22 01:38:06;;;;;;;26.33;19.00;;;8.10;99.90;;;;;;5052924;28;20452;-79
2021/04/22 01:40:33;;;;;;;28.00;19.80;;;8.00;99.90;;;;;;5053204;28;20036;-80
2021/04/22 01:42:59;;;;;;;27.38;19.88;;;8.10;99.90;;;;;;5052508;28;20033;-80
2021/04/22 01:45:26;;;;;;;29.58;18.95;;;8.00;99.90;;;;;;5057309;28;20021;-80
2021/04/22 01:47:53;;;;;;;31.65;18.73;;;8.00;99.90;;;;;;5065408;28;20025;-80
2021/04/22 01:50:23;;;;;;;28.77;19.80;;;8.00;99.90;;;;;;5052315;28;20033;-80
2021/04/22 01:52:50;;;;;;;29.23;19.17;;;8.00;99.90;;;;;;5052376;28;20036;-80
2021/04/22 01:55:23;;;;;;;27.55;18.05;;;8.00;99.90;;;;;;5066025;28;20290;-80
2021/04/22 01:57:50;;;;;;;25.08;18.00;;;8.00;99.90;;;;;;5053337;28;20025;-80
2021/04/22 02:00:21;;;;;;;25.33;18.13;;;7.90;99.90;;;;;;5052776;28;20032;-80
2021/04/22 02:02:47;;;;;;;27.40;17.40;;;7.90;99.90;;;;;;5060494;28;20049;-79
2021/04/22 02:05:16;;;;;;;23.85;16.45;;;7.90;99.90;;;;;;5052703;28;20382;-79
2021/04/22 02:07:43;;;;;;;26.45;17.27;;;7.90;99.90;;;;;;5052366;28;20043;-80
2021/04/22 02:10:09;;;;;;;27.88;16.52;;;7.90;99.90;;;;;;5064921;28;20032;-81
2021/04/22 02:12:36;;;;;;;27.63;17.05;;;7.90;99.90;;;;;;5052663;28;20462;-80
2021/04/22 02:15:08;;;;;;;27.85;16.25;;;7.90;99.90;;;;;;5062956;28;20052;-81
2021/04/22 02:17:34;;;;;;;23.75;15.80;;;7.80;99.90;;;;;;5054216;28;20381;-81
2021/04/22 02:20:00;;;;;;;25.50;16.90;;;7.80;99.90;;;;;;5052361;28;20049;-80
2021/04/22 02:22:26;;;;;;;23.15;15.82;;;7.90;99.90;;;;;;5052083;28;20033;-80
2021/04/22 02:24:53;;;;;;;23.98;15.70;;;7.80;99.90;;;;;;5052013;28;20052;-80
2021/04/22 02:27:19;;;;;;;23.90;14.73;;;7.80;99.90;;;;;;5052225;28;20032;-79
2021/04/22 02:29:45;;;;;;;19.30;14.25;;;7.80;99.90;;;;;;5051911;28;20033;-80
2021/04/22 02:32:12;;;;;;;20.83;14.57;;;7.80;99.90;;;;;;5052455;28;20060;-80
2021/04/22 02:34:39;;;;;;;25.20;14.00;;;7.80;99.90;;;;;;5053609;28;20382;-81
2021/04/22 02:37:06;;;;;;;26.50;14.68;;;7.70;99.90;;;;;;5051843;28;20084;-80
2021/04/22 02:39:32;;;;;;;21.23;14.88;;;7.70;99.90;;;;;;5051941;28;20032;-81
2021/04/22 02:41:59;;;;;;;22.23;13.95;;;7.60;99.90;;;;;;5052102;28;20390;-81
2021/04/22 02:44:25;;;;;;;23.45;14.32;;;7.60;99.90;;;;;;5052316;28;20025;-81
2021/04/22 02:46:51;;;;;;;19.50;12.85;;;7.50;99.90;;;;;;5051958;28;20059;-80
2021/04/22 02:49:17;;;;;;;21.35;13.68;;;7.50;99.90;;;;;;5052169;28;20029;-81
2021/04/22 02:51:44;;;;;;;20.80;13.00;;;7.50;99.90;;;;;;5052018;28;20112;-81
2021/04/22 02:54:10;;;;;;;21.20;13.65;;;7.50;99.90;;;;;;5051719;28;20029;-81
2021/04/22 02:56:36;;;;;;;24.08;14.30;;;7.50;99.90;;;;;;5051872;28;20366;-81
2021/04/22 02:59:03;;;;;;;23.77;12.13;;;7.40;99.90;;;;;;5053127;28;20385;-78
2021/04/22 03:01:29;;;;;;;22.88;12.77;;;7.40;99.90;;;;;;5067851;28;20037;-80
2021/04/22 03:03:55;;;;;;;26.00;13.60;;;7.40;99.90;;;;;;5066270;28;20033;-80
2021/04/22 03:06:21;;;;;;;21.08;11.90;;;7.30;99.90;;;;;;5058078;28;20025;-80
2021/04/22 03:08:47;;;;;;;22.33;12.15;;;7.20;99.90;;;;;;5062508;28;20045;-79
2021/04/22 03:11:14;;;;;;;19.42;11.07;;;7.30;99.90;;;;;;5063371;28;20052;-80
2021/04/22 03:13:40;;;;;;;20.83;9.60;;;7.20;99.90;;;;;;5051920;28;20037;-80
2021/04/22 03:16:07;;;;;;;15.75;10.05;;;7.20;99.90;;;;;;5066442;28;20037;-81
2021/04/22 03:18:33;;;;;;;19.45;9.30;;;7.20;99.90;;;;;;5051881;28;20045;-81
2021/04/22 03:20:59;;;;;;;19.23;8.70;;;7.20;99.90;;;;;;5063380;28;20037;-80
2021/04/22 03:23:25;;;;;;;18.45;8.15;;;7.20;99.90;;;;;;5051848;28;20442;-80
2021/04/22 03:25:51;;;;;;;18.23;7.80;;;7.10;99.90;;;;;;5070353;28;20025;-80
2021/04/22 03:28:18;;;;;;;18.73;9.05;;;7.00;99.90;;;;;;5064933;28;20049;-80
2021/04/22 03:30:44;;;;;;;18.85;8.70;;;7.00;99.90;;;;;;5056185;28;20032;-80
2021/04/22 03:33:11;;;;;;;20.27;9.15;;;7.00;99.90;;;;;;5067874;28;20045;-80
2021/04/22 03:35:37;;;;;;;20.80;9.52;;;6.90;99.90;;;;;;5055888;28;20371;-81
2021/04/22 03:38:03;;;;;;;18.70;8.48;;;6.80;99.90;;;;;;5055571;28;20028;-81
2021/04/22 03:40:30;;;;;;;15.98;7.78;;;6.80;99.90;;;;;;5055956;28;20485;-79
2021/04/22 03:42:56;;;;;;;15.52;7.90;;;6.70;99.90;;;;;;5066652;28;20041;-79
2021/04/22 03:45:24;;;;;;;18.35;8.32;;;6.70;99.90;;;;;;5055732;28;20033;-81
2021/04/22 03:47:50;;;;;;;16.45;8.40;;;6.60;99.90;;;;;;5055117;28;20100;-81
2021/04/22 03:50:18;;;;;;;14.30;6.95;;;6.60;99.90;;;;;;5055641;28;20021;-80
2021/04/22 03:52:46;;;;;;;19.38;7.65;;;6.60;99.90;;;;;;5063975;28;20051;-80
2021/04/22 03:55:17;;;;;;;11.85;5.88;;;6.50;99.90;;;;;;5057317;28;20029;-79
2021/04/22 03:57:43;;;;;;;14.82;6.50;;;6.50;99.90;;;;;;5068267;28;20040;-80
2021/04/22 04:00:13;;;;;;;18.35;6.75;;;6.50;99.50;;;;;;5054768;28;20029;-81
2021/04/22 04:02:39;;;;;;;14.70;5.80;;;6.40;99.10;;;;;;5069866;28;20053;-80
2021/04/22 04:05:06;;;;;;;17.73;5.85;;;6.30;98.70;;;;;;5059881;28;20378;-79
2021/04/22 04:07:33;;;;;;;13.80;5.05;;;6.40;97.50;;;;;;5069109;28;20037;-79
2021/04/22 04:09:59;;;;;;;15.77;5.05;;;6.30;97.30;;;;;;5060753;28;20055;-80
2021/04/22 04:12:27;;;;;;;13.02;5.18;;;6.30;97.00;;;;;;5067063;28;20044;-78
2021/04/22 04:14:54;;;;;;;10.43;4.00;;;6.20;96.70;;;;;;5054460;28;20052;-80
2021/04/22 04:17:20;;;;;;;11.00;4.45;;;6.10;96.10;;;;;;5055037;28;20025;-81
2021/04/22 04:19:50;;;;;;;16.75;4.40;;;6.10;95.50;;;;;;5054839;28;20458;-79
2021/04/22 04:22:17;;;;;;;10.95;3.55;;;6.10;94.60;;;;;;5056523;28;20036;-83
2021/04/22 04:24:43;;;;;;;11.98;5.35;;;6.10;94.10;;;;;;5054549;28;20036;-82
2021/04/22 04:27:09;;;;;;;9.05;3.75;;;6.10;93.80;;;;;;5055550;28;20029;-81
2021/04/22 04:29:35;;;;;;;7.80;3.70;;;6.00;93.60;;;;;;5073523;28;20032;-81
2021/04/22 04:32:02;;;;;;;12.40;3.72;;;6.00;93.20;;;;;;5063748;28;20290;-81
2021/04/22 04:34:28;;;;;;;11.05;3.95;;;6.00;93.30;;;;;;5073058;28;20374;-79
2021/04/22 04:36:54;;;;;;;16.80;3.20;;;5.90;93.20;;;;;;5061909;28;20033;-81
2021/04/22 04:39:20;;;;;;;11.02;3.95;;;5.90;93.20;;;;;;5059957;28;20033;-82
2021/04/22 04:41:47;;;;;;;13.35;5.20;;;5.90;92.90;;;;;;5069223;28;20052;-81
2021/04/22 04:44:13;;;;;;;12.23;3.65;;;5.90;92.80;;;;;;5064464;28;20029;-80
2021/04/22 04:46:40;;;;;;;13.63;3.03;;;5.80;92.50;;;;;;5069807;28;20024;-80
2021/04/22 04:49:06;;;;;;;10.55;3.45;;;5.90;92.40;;;;;;5069652;28;20200;-80
2021/04/22 04:51:33;;;;;;;10.93;2.92;;;5.90;92.20;;;;;;5054078;28;20044;-81
2021/04/22 04:53:59;;;;;;;10.98;3.10;;;5.90;91.70;;;;;;5053813;28;20029;-80
2021/04/22 04:56:25;;;;;;;9.40;3.58;;;5.90;91.40;;;;;;5054754;28;20028;-80
2021/04/22 04:58:53;;;;;;;9.13;2.90;;;5.90;91.40;;;;;;5053426;28;20036;-81
2021/04/22 05:01:19;;;;;;;10.77;2.85;;;5.90;91.00;;;;;;5053782;28;20378;-81
2021/04/22 05:03:45;;;;;;;9.88;2.78;;;6.00;90.70;;;;;;5071667;28;20417;-81
2021/04/22 05:06:12;;;;;;;7.15;2.25;;;6.00;89.90;;;;;;5055954;28;20025;-81
2021/04/22 05:08:38;;;;;;;9.55;2.75;;;6.00;89.30;;;;;;5075375;28;20029;-79
2021/04/22 05:11:04;;;;;;;6.22;2.53;;;6.10;88.80;;;;;;5054229;28;20033;-81
2021/04/22 05:13:31;;;;;;;8.25;2.67;;;6.10;87.90;;;;;;5054008;28;20417;-81
2021/04/22 05:15:58;;;;;;;11.70;2.60;;;6.20;87.10;;;;;;5053275;28;20028;-81
2021/04/22 05:18:26;;;;;;;8.70;2.20;;;6.30;85.60;;;;;;5068302;28;20044;-81
2021/04/22 05:20:53;;;;;;;8.43;2.55;;;6.50;84.50;;;;;;5057880;28;20029;-81
2021/04/22 05:23:20;;;;;;;9.10;2.15;;;6.40;83.70;;;;;;5071783;28;20404;-76
2021/04/22 05:25:48;;;;;;;10.18;2.50;;;6.40;83.70;;;;;;5064141;28;20032;-82
2021/04/22 05:28:14;;;;;;;11.18;3.13;;;6.50;82.80;;;;;;5060447;28;20037;-83
2021/04/22 05:30:41;;;;;;;10.18;2.17;;;6.70;82.00;;;;;;5059245;28;20048;-83
2021/04/22 05:33:08;;;;;;;8.80;2.47;;;6.70;80.40;;;;;;5052612;28;20053;-82
2021/04/22 05:35:35;;;;;;;12.23;2.60;;;6.70;80.70;;;;;;5053274;28;20029;-82
2021/04/22 05:38:02;;;;;;;9.98;2.38;;;6.70;79.50;;;;;;5060430;28;20025;-83
2021/04/22 05:40:29;;;;;;;13.63;3.00;;;6.80;79.00;;;;;;5055554;28;20029;-83
2021/04/22 05:42:55;;;;;;;12.05;3.45;;;7.00;78.60;;;;;;5051179;28;20045;-83
2021/04/22 05:45:22;;;;;;;10.77;2.35;;;7.10;77.40;;;;;;5054024;28;20033;-84
2021/04/22 05:47:48;;;;;;;8.35;2.20;;;7.10;76.70;;;;;;5053273;28;20033;-85
2021/04/22 05:50:17;;;;;;;10.55;2.13;;;7.10;75.80;;;;;;5052578;28;20385;-84
2021/04/22 05:52:43;;;;;;;7.63;2.17;;;7.00;75.50;;;;;;5062438;28;20036;-84
2021/04/22 05:55:11;;;;;;;12.55;3.03;;;7.20;75.30;;;;;;5066000;28;20025;-83
2021/04/22 05:57:37;;;;;;;10.90;2.45;;;7.40;73.40;;;;;;5052844;28;20032;-83
2021/04/22 06:00:06;;;;;;;10.35;2.63;;;7.20;73.40;;;;;;5052688;28;20028;-83
2021/04/22 06:02:33;;;;;;;4.37;1.50;;;7.60;72.70;;;;;;5054048;28;20056;-83
2021/04/22 06:05:00;;;;;;;8.18;2.20;;;8.10;70.10;;;;;;5053140;28;20040;-83
2021/04/22 06:07:26;;;;;;;11.48;2.70;;;8.70;67.10;;;;;;5053459;28;20033;-83
2021/04/22 06:09:52;;;;;;;10.40;3.70;;;9.10;65.20;;;;;;5053838;28;20394;-84
2021/04/22 06:12:21;;;;;;;11.05;2.40;;;8.80;64.70;;;;;;5053699;28;20033;-84
2021/04/22 06:14:47;;;;;;;8.45;2.40;;;8.70;64.70;;;;;;5053128;28;20036;-85
2021/04/22 06:17:15;;;;;;;9.27;2.47;;;8.10;65.90;;;;;;5053763;28;20381;-84
2021/04/22 06:19:41;;;;;;;10.90;3.30;;;7.60;66.60;;;;;;5054948;28;20477;-81
2021/04/22 06:22:08;;;;;;;8.88;2.58;;;8.10;65.70;;;;;;5066374;28;20268;-79
2021/04/22 06:24:34;;;;;;;11.50;2.72;;;8.40;65.40;;;;;;5054899;28;20047;-85
2021/04/22 06:27:00;;;;;;;8.35;2.35;;;8.60;63.70;;;;;;5051985;28;20040;-84
2021/04/22 06:29:26;;;;;;;8.07;2.42;;;8.70;63.10;;;;;;5053470;28;20035;-86
2021/04/22 06:31:55;;;;;;;8.15;2.72;;;9.30;61.20;;;;;;5051983;28;20052;-86
2021/04/22 06:34:22;;;;;;;10.98;3.10;;;9.30;60.50;;;;;;5052242;28;20481;-85
2021/04/22 06:36:49;;;;;;;9.23;2.20;;;9.70;58.50;;;;;;5062436;28;20045;-81
2021/04/22 06:39:16;;;;;;;12.40;3.33;;;9.90;57.60;;;;;;5062269;28;20025;-83
2021/04/22 06:41:42;;;;;;;10.30;2.13;;;9.20;56.40;;;;;;5056233;28;20029;-85
2021/04/22 06:44:09;;;;;;;8.82;2.80;;;9.10;57.20;;;;;;5053009;28;20025;-86
2021/04/22 06:46:36;;;;;;;9.60;2.78;;;9.30;56.70;;;;;;5054017;28;20061;-86
2021/04/22 06:49:03;;;;;;;13.32;2.63;;;9.00;57.10;;;;;;5054227;28;20037;-85
2021/04/22 06:51:30;;;;;;;9.43;2.88;;;9.90;55.60;;;;;;5053791;28;20028;-84
2021/04/22 06:53:56;;;;;;;10.82;3.60;;;9.20;56.00;;;;;;5066663;28;20044;-84
2021/04/22 06:56:22;;;;;;;10.73;2.95;;;10.10;54.50;;;;;;5054024;28;20040;-84
2021/04/22 06:58:49;;;;;;;10.20;2.40;;;9.60;54.70;;;;;;5052832;28;20045;-83
2021/04/22 07:01:15;;;;;;;8.48;2.90;;;9.10;55.60;;;;;;5059673;28;20028;-85
2021/04/22 07:03:41;;;;;;;10.93;3.03;;;9.30;55.70;;;;;;5060263;28;20060;-86
2021/04/22 07:06:08;;;;;;;9.35;2.35;;;9.50;55.10;;;;;;5067325;28;20643;-85
2021/04/22 07:08:34;;;;;;;12.63;2.67;;;9.90;54.40;;;;;;5066171;28;20056;-83
2021/04/22 07:11:00;;;;;;;11.30;2.85;;;9.90;53.60;;;;;;5071943;28;20041;-82
2021/04/22 07:13:26;;;;;;;13.93;3.20;;;9.50;55.00;;;;;;5056505;28;20656;-81
2021/04/22 07:15:53;;;;;;;12.20;2.40;;;9.90;53.80;;;;;;5060872;28;20053;-81
2021/04/22 07:18:19;;;;;;;7.40;2.08;;;9.50;54.80;;;;;;5073363;28;20036;-81
2021/04/22 07:20:45;;;;;;;9.02;2.35;;;9.70;54.00;;;;;;5056406;28;20049;-81
2021/04/22 07:23:13;;;;;;;11.27;2.78;;;10.90;52.80;;;;;;5067876;28;20041;-82
2021/04/22 07:25:40;;;;;;;13.00;2.92;;;10.50;52.30;;;;;;5056284;28;20044;-82
2021/04/22 07:28:08;;;;;;;10.55;2.63;;;10.30;51.90;;;;;;5055959;28;20040;-81
2021/04/22 07:30:36;;;;;;;8.70;2.20;;;10.40;51.80;;;;;;5056565;28;20466;-79
2021/04/22 07:33:04;;;;;;;7.97;2.55;;;11.20;50.30;;;;;;5064534;28;20048;-84
2021/04/22 07:35:31;;;;;;;10.95;2.78;;;10.80;50.70;;;;;;5059026;28;20046;-82
2021/04/22 07:37:57;;;;;;;12.80;3.38;;;11.30;50.60;;;;;;5056195;28;20040;-81
2021/04/22 07:40:27;;;;;;;9.70;2.22;;;10.90;51.40;;;;;;5057684;28;20024;-82
2021/04/22 07:42:53;;;;;;;13.68;2.75;;;10.40;51.50;;;;;;5072709;28;20033;-83
2021/04/22 07:45:24;;;;;;;10.13;2.50;;;9.80;51.70;;;;;;5057676;28;20378;-81
2021/04/22 07:47:50;;;;;;;10.35;3.30;;;10.50;51.50;;;;;;5055893;28;20044;-83
2021/04/22 07:50:19;;;;;;;8.13;2.20;;;11.20;49.90;;;;;;5054838;28;20041;-79
2021/04/22 07:52:47;;;;;;;9.45;2.72;;;9.90;51.20;;;;;;5060876;28;20043;-80
2021/04/22 07:55:20;;;;;;;8.73;2.47;;;10.10;51.10;;;;;;5068027;28;20025;-82
2021/04/22 07:57:49;;;;;;;10.85;3.05;;;10.60;49.90;;;;;;5069818;28;20033;-83
2021/04/22 08:00:18;;;;;;;9.13;2.30;;;10.30;49.90;;;;;;5059437;28;20029;-81
2021/04/22 08:02:46;;;;;;;10.88;2.88;;;11.20;49.40;;;;;;5058212;28;20048;-84
2021/04/22 08:05:15;;;;;;;7.97;2.17;;;10.90;49.40;;;;;;5060782;28;20056;-80
2021/04/22 08:07:41;;;;;;;8.73;2.38;;;11.70;48.70;;;;;;5064585;28;20024;-83
2021/04/22 08:10:14;;;;;;;11.38;2.63;;;11.60;48.70;;;;;;5060673;28;20044;-81
2021/04/22 08:12:41;;;;;;;8.85;2.45;;;10.70;49.40;;;;;;5071778;28;20037;-82
2021/04/22 08:15:09;;;;;;;10.05;2.38;;;10.20;49.80;;;;;;5066092;28;20062;-82
2021/04/22 08:17:37;;;;;;;11.00;2.30;;;10.40;50.10;;;;;;5072975;28;20034;-83
2021/04/22 08:20:06;;;;;;;12.15;2.63;;;11.00;49.20;;;;;;5053826;28;20037;-82
2021/04/22 08:22:34;;;;;;;10.20;3.25;;;11.10;48.60;;;;;;5055205;28;20045;-82
2021/04/22 08:25:01;;;;;;;10.73;3.33;;;11.20;47.80;;;;;;5055009;28;20490;-84
2021/04/22 08:27:27;;;;;;;13.02;2.70;;;10.80;49.10;;;;;;5070963;28;20410;-81
2021/04/22 08:29:54;;;;;;;10.60;3.25;;;11.40;47.60;;;;;;5056178;28;20045;-82
2021/04/22 08:32:20;;;;;;;8.38;2.78;;;11.40;47.10;;;;;;5065228;28;20055;-83
2021/04/22 08:34:46;;;;;;;12.35;2.80;;;11.40;47.20;;;;;;5069323;28;20036;-83
2021/04/22 08:37:13;;;;;;;12.30;3.35;;;11.90;46.10;;;;;;5062635;28;20040;-82
2021/04/22 08:39:39;;;;;;;7.72;2.28;;;11.70;46.50;;;;;;5054579;28;20033;-82
2021/04/22 08:42:06;;;;;;;7.20;2.55;;;11.80;47.00;;;;;;5054760;28;20028;-83
2021/04/22 08:44:33;;;;;;;10.60;3.17;;;12.10;46.90;;;;;;5055173;28;20033;-82
2021/04/22 08:47:00;;;;;;;9.98;2.92;;;11.80;46.80;;;;;;5054421;28;20057;-82
2021/04/22 08:49:28;;;;;;;13.15;3.92;;;11.30;48.00;;;;;;5055073;28;20036;-83
2021/04/22 08:51:55;;;;;;;7.82;3.00;;;11.70;46.00;;;;;;5054400;28;20044;-80
2021/04/22 08:54:22;;;;;;;10.50;3.00;;;12.10;46.30;;;;;;5054265;28;20039;-83
2021/04/22 08:56:49;;;;;;;9.05;2.75;;;12.50;45.60;;;;;;5053768;28;20025;-80
2021/04/22 08:59:17;;;;;;;9.55;3.05;;;12.00;45.60;;;;;;5070988;28;20078;-81
2021/04/22 09:01:43;;;;;;;11.55;3.58;;;12.60;45.30;;;;;;5053656;28;20041;-81
2021/04/22 09:04:11;;;;;;;9.80;2.75;;;11.90;46.50;;;;;;5054001;28;20052;-83
2021/04/22 09:06:39;;;;;;;8.70;2.60;;;11.60;46.60;;;;;;5054426;28;20477;-83
2021/04/22 09:09:07;;;;;;;12.15;3.25;;;11.20;47.50;;;;;;5053604;28;20035;-81
2021/04/22 09:11:43;;;;;;;10.45;2.45;;;11.00;46.60;;;;;;5054530;28;20037;-85
2021/04/22 09:14:19;;;;;;;12.02;2.97;;;11.40;46.50;;;;;;5053810;28;20037;-81
2021/04/22 09:16:50;;;;;;;11.50;3.25;;;11.70;45.70;;;;;;5072506;28;20421;-81
2021/04/22 09:19:21;;;;;;;13.23;3.80;;;11.80;45.60;;;;;;5067253;28;20039;-81
2021/04/22 09:21:54;;;;;;;12.05;4.50;;;11.80;45.50;;;;;;5055602;28;20049;-81
2021/04/22 09:24:25;;;;;;;9.95;3.30;;;11.60;45.70;;;;;;5065747;28;20059;-81
2021/04/22 09:26:51;;;;;;;;;;;11.30;45.60;;;;;;5059620;28;20033;-81
2021/04/22 09:29:31;;;;;;;11.20;3.17;;;11.40;46.50;;;;;;5053694;28;19908;-83
2021/04/22 09:32:24;;;;;;;11.82;3.42;;;12.20;44.80;;;;;;5053234;28;20059;-81
2021/04/22 09:34:53;;;;;;;9.75;2.60;;;12.30;43.90;;;;;;5053781;28;20055;-81
2021/04/22 09:37:22;;;;;;;9.18;3.20;;;13.30;43.30;;;;;;5053805;28;20044;-82
2021/04/22 09:39:49;;;;;;;11.52;2.92;;;12.30;44.00;;;;;;5056294;28;20382;-81
2021/04/22 09:42:18;;;;;;;8.93;2.95;;;11.40;45.80;;;;;;5056387;28;20462;-82
2021/04/22 09:44:49;;;;;;;8.30;3.25;;;11.20;45.90;;;;;;5055899;28;20463;-81
2021/04/22 09:47:24;;;;;;;;;;;11.10;46.40;;;;;;5054797;28;20037;-81
2021/04/22 09:49:58;;;;;;;13.40;3.42;;;11.30;46.50;;;;;;5057042;28;19909;-79
2021/04/22 09:52:30;;;;;;;8.70;2.88;;;11.40;45.20;;;;;;5056740;28;20037;-82
2021/04/22 09:54:57;;;;;;;10.35;2.88;;;12.00;44.20;;;;;;5068354;28;20040;-82
2021/04/22 09:57:32;;;;;;;10.48;2.72;;;12.40;42.70;;;;;;5070123;28;20045;-82
2021/04/22 09:59:59;;;;;;;10.85;3.55;;;12.00;42.60;;;;;;5065626;28;20028;-79
2021/04/22 10:02:27;;;;;;;8.82;2.80;;;12.30;42.20;;;;;;5064047;28;20049;-82
2021/04/22 10:04:55;;;;;;;11.18;3.03;;;12.10;43.00;;;;;;5053242;28;20033;-81
2021/04/22 10:07:28;;;;;;;11.45;3.67;;;11.60;43.40;;;;;;5052920;28;20037;-78
2021/04/22 10:10:00;;;;;;;8.48;2.55;;;11.60;44.80;;;;;;5054696;28;20037;-79
2021/04/22 10:12:26;;;;;;;8.18;2.60;;;11.60;44.40;;;;;;5055728;28;20036;-78
2021/04/22 10:14:54;;;;;;;11.80;3.03;;;11.30;45.20;;;;;;5057814;28;20052;-80
2021/04/22 10:17:25;;;;;;;11.15;3.65;;;11.60;44.40;;;;;;5055946;28;20029;-82
2021/04/22 10:20:12;;;;;;;10.18;2.80;;;11.30;44.00;;;;;;5055113;28;20033;-80
2021/04/22 10:22:43;;;;;;;11.82;3.00;;;11.20;45.50;;;;;;5055847;28;20040;-81
2021/04/22 10:25:13;;;;;;;11.57;3.40;;;11.40;46.10;;;;;;5056440;28;20040;-81
2021/04/22 10:27:40;;;;;;;11.93;3.75;;;11.40;43.40;;;;;;5056620;28;20378;-81
2021/04/22 10:30:13;;;;;;;10.30;3.40;;;11.20;44.60;;;;;;5055154;28;20037;-80
2021/04/22 10:32:42;;;;;;;12.25;3.42;;;10.80;44.50;;;;;;5054683;28;20406;-80
2021/04/22 10:35:12;;;;;;;10.73;3.08;;;11.20;46.10;;;;;;5071613;28;20028;-81
2021/04/22 10:37:41;;;;;;;12.48;2.92;;;11.50;44.40;;;;;;5056407;28;20045;-81
2021/04/22 10:40:10;;;;;;;7.40;2.33;;;11.30;44.70;;;;;;5054192;28;20392;-81
2021/04/22 10:42:38;;;;;;;9.43;2.67;;;11.60;44.40;;;;;;5056398;28;20039;-82
2021/04/22 10:45:13;;;;;;;8.07;2.45;;;11.50;41.90;;;;;;5055673;28;20033;-79
2021/04/22 10:47:40;;;;;;;8.70;3.00;;;12.00;42.70;;;;;;5055064;28;20041;-80
2021/04/22 10:50:15;;;;;;;12.38;3.13;;;12.10;42.30;;;;;;5054987;28;20040;-80
2021/04/22 10:52:43;;;;;;;9.40;2.92;;;11.60;43.10;;;;;;5055571;28;20461;-80
2021/04/22 10:55:22;;;;;;;9.52;2.72;;;11.40;44.20;;;;;;5073171;28;20251;-80
2021/04/22 10:57:51;;;;;;;10.70;3.22;;;11.30;45.10;;;;;;5058829;28;20025;-80
2021/04/22 11:00:20;;;;;;;10.85;3.30;;;11.50;45.00;;;;;;5055205;28;20044;-81
2021/04/22 11:02:50;;;;;;;11.45;4.22;;;11.50;45.00;;;;;;5074332;28;20056;-81
2021/04/22 11:05:22;;;;;;;13.00;3.83;;;11.80;44.20;;;;;;5055132;28;20025;-81
2021/04/22 11:08:16;;;;;;;14.18;3.33;;;12.00;44.70;;;;;;5053444;28;20283;-80
2021/04/22 11:10:45;;;;;;;12.68;3.83;;;11.70;45.30;;;;;;5065761;28;20045;-79
2021/04/22 11:13:17;;;;;;;15.00;4.03;;;11.30;44.60;;;;;;5067343;28;20378;-81
2021/04/22 11:15:52;;;;;;;10.75;3.08;;;11.20;45.00;;;;;;5052861;28;21667;-81
2021/04/22 11:18:19;;;;;;;9.23;3.83;;;11.70;44.80;;;;;;5056499;28;20033;-81
2021/04/22 11:20:46;;;;;;;14.65;3.22;;;12.20;44.00;;;;;;5056895;28;20044;-82
2021/04/22 11:23:18;;;;;;;11.77;3.15;;;11.90;44.30;;;;;;5054632;28;20037;-81
2021/04/22 11:25:53;;;;;;;7.47;2.50;;;12.00;44.30;;;;;;5055020;28;20033;-81
2021/04/22 11:28:33;;;;;;;10.57;2.75;;;12.10;43.90;;;;;;5054646;28;20037;-81
2021/04/22 11:31:15;;;;;;;10.02;3.22;;;12.20;43.40;;;;;;5053637;28;20032;-81
2021/04/22 11:33:43;;;;;;;13.65;4.15;;;12.10;43.60;;;;;;5053720;28;20052;-81
2021/04/22 11:36:21;;;;;;;5.60;2.30;;;12.10;43.60;;;;;;5053335;28;20025;-79
2021/04/22 11:38:55;;;;;;;8.68;2.78;;;11.90;44.10;;;;;;5052534;28;20065;-80
2021/04/22 11:41:23;;;;;;;19.17;3.20;;;12.20;44.10;;;;;;5053364;28;20054;-82
2021/04/22 11:44:07;;;;;;;10.05;3.03;;;12.20;43.70;;;;;;5052676;28;20766;-80
2021/04/22 11:46:44;;;;;;;7.25;2.83;;;12.40;43.80;;;;;;5052211;28;20041;-81
2021/04/22 11:49:30;;;;;;;11.23;3.60;;;12.40;43.90;;;;;;5055422;28;20028;-81
2021/04/22 11:51:59;;;;;;;6.47;2.45;;;12.40;44.40;;;;;;5068849;28;20028;-81
2021/04/22 11:54:31;;;;;;;10.45;3.20;;;12.50;43.80;;;;;;5063382;28;20497;-82
2021/04/22 11:57:04;;;;;;;11.68;3.38;;;12.40;43.80;;;;;;5077001;28;20473;-80
2021/04/22 11:59:31;;;;;;;10.85;3.03;;;12.70;42.80;;;;;;5060153;28;20033;-81
2021/04/22 12:02:00;;;;;;;12.20;3.58;;;12.40;43.10;;;;;;5056668;28;20036;-81
2021/04/22 12:04:45;;;;;;;13.45;3.15;;;12.70;43.80;;;;;;5056271;28;20056;-82
2021/04/22 12:07:15;;;;;;;11.52;3.40;;;12.80;43.90;;;;;;5074243;28;20032;-80
2021/04/22 12:09:53;;;;;;;7.70;2.85;;;12.80;42.30;;;;;;5071088;28;20025;-81
2021/04/22 12:12:23;;;;;;;9.52;3.35;;;12.50;43.00;;;;;;5066879;28;20045;-80
2021/04/22 12:14:53;;;;;;;10.55;3.75;;;12.60;43.90;;;;;;5061372;28;20037;-81
2021/04/22 12:17:22;;;;;;;12.57;3.20;;;12.90;43.90;;;;;;5057421;28;20040;-81
2021/04/22 12:19:50;;;;;;;9.43;3.50;;;12.90;44.40;;;;;;5057065;28;20033;-82
2021/04/22 12:22:29;;;;;;;8.48;3.28;;;12.50;44.20;;;;;;5055511;28;20052;-80
2021/04/22 12:24:56;;;;;;;8.43;3.58;;;12.40;45.10;;;;;;5070430;28;20397;-81
2021/04/22 12:27:29;;;;;;;10.30;3.20;;;12.50;43.70;;;;;;5054941;28;20029;-80
2021/04/22 12:29:56;;;;;;;11.90;3.55;;;12.80;43.60;;;;;;5056137;28;20057;-80
2021/04/22 12:32:22;;;;;;;9.38;3.97;;;12.60;44.40;;;;;;5056099;28;20041;-79
2021/04/22 12:34:48;;;;;;;11.98;3.33;;;13.00;44.00;;;;;;5056959;28;20040;-79
2021/04/22 12:37:15;;;;;;;7.18;3.08;;;13.20;43.30;;;;;;5057214;28;20048;-81
2021/04/22 12:39:46;;;;;;;9.55;3.40;;;13.10;43.40;;;;;;5056432;28;20041;-80
2021/04/22 12:42:18;;;;;;;8.82;3.08;;;13.00;42.80;;;;;;5056216;28;20029;-83
2021/04/22 12:44:59;;;;;;;9.32;3.75;;;13.20;42.50;;;;;;5073963;28;20045;-82
2021/04/22 12:47:42;;;;;;;10.27;3.42;;;13.10;42.60;;;;;;5065433;28;20055;-82
2021/04/22 12:50:32;;;;;;;9.07;3.67;;;13.20;43.00;;;;;;5067487;28;20036;-82